Flight Track Log - Related Links

Times and Time Zones

All times are in EDT time to prevent confusion due to time zone crossing. See the DAL268 flight status page for this flight to view local times or setup timezone preferences in your user account.

Time Position Orientation Groundspeed Altitude Reporting Facility
EDT Latitude Longitude Course Direction KTS MPH feet Rate Location/Type
Mon 11:34:32 PM 40.6360 -73.7800 27° Northeast 173 199  Level FlightAware ADS-B
Mon 11:34:52 PM 40.6500 -73.7690 31° Northeast 169 194 600 1,800 Climbing FlightAware ADS-B
Mon 11:35:02 PM 40.6566 -73.7599 46° Northeast 172 198 900 1,200 Climbing FlightAware ADS-B
Mon 11:35:32 PM 40.6610 -73.7280 80° East 196 226 1,400 982 Climbing FlightAware ADS-B
Mon 11:35:57 PM 40.6620 -73.6970 88° East 224 258 1,800 1,050 Climbing FlightAware ADS-B
Mon 11:36:12 PM 40.6600 -73.6770 98° East 237 273 2,100 1,000 Climbing FlightAware ADS-B
Mon 11:36:27 PM 40.6530 -73.6550 113° Southeast 254 292 2,300 1,467 Climbing FlightAware ADS-B
Mon 11:36:57 PM 40.6340 -73.6140 121° Southeast 273 314 3,200 2,073 Climbing FlightAware ADS-B
Mon 11:37:22 PM 40.6170 -73.5760 121° Southeast 282 325 4,200 2,556 Climbing FlightAware ADS-B
Mon 11:37:51 PM 40.5986 -73.5306 118° Southeast 289 333 5,500 2,769 Climbing FlightAware ADS-B
Mon 11:38:14 PM 40.5841 -73.4940 118° Southeast 292 336 6,600 3,000 Climbing FlightAware ADS-B
Mon 11:38:29 PM 40.5752 -73.4708 117° Southeast 288 331 7,400 3,000 Climbing FlightAware ADS-B
Mon 11:38:36 PM 40.5716 -73.4595 113° Southeast 289 333 7,700 2,727 Climbing FlightAware ADS-B
Mon 11:38:40 PM 40.5695 -73.4519 110° East 291 335 7,900 2,100 Climbing FlightAware ADS-B
Mon 11:38:56 PM 40.5639 -73.4252 105° East 298 343 8,400 1,935 Climbing FlightAware ADS-B
Mon 11:39:11 PM 40.5577 -73.3984 107° East 306 352 8,900 2,323 Climbing FlightAware ADS-B
Mon 11:39:27 PM 40.5515 -73.3704 106° East 306 352 9,600 2,087 Climbing FlightAware ADS-B
Mon 11:39:57 PM 40.5393 -73.3145 106° East 326 375 10,500 1,696 Climbing FlightAware ADS-B
Mon 11:40:13 PM 40.5333 -73.2841 105° East 337 388 10,900 1,778 Climbing FlightAware ADS-B
Mon 11:40:24 PM 40.5304 -73.2610 99° East 342 394 11,300 1,895 Climbing FlightAware ADS-B
Mon 11:40:32 PM 40.5301 -73.2452 91° East 345 397 11,500 2,333 Climbing FlightAware ADS-B
Mon 11:40:42 PM 40.5319 -73.2229 84° East 348 400 12,000 2,118 Climbing FlightAware ADS-B
Mon 11:40:49 PM 40.5348 -73.2088 75° East 354 407 12,100 1,143 Climbing FlightAware ADS-B
Mon 11:41:03 PM 40.5457 -73.1815 62° Northeast 366 421 12,400 1,297 Climbing FlightAware ADS-B
Mon 11:41:26 PM 40.5688 -73.1396 54° Northeast 384 442 12,900 1,364 Climbing FlightAware ADS-B
Mon 11:41:47 PM 40.5930 -73.1007 51° Northeast 398 458 13,400 1,560 Climbing FlightAware ADS-B
Mon 11:42:16 PM 40.6249 -73.0428 54° Northeast 412 474 14,200 2,129 Climbing FlightAware ADS-B
Mon 11:42:49 PM 40.6592 -72.9735 57° Northeast 412 474 15,600 2,091 Climbing FlightAware ADS-B
Mon 11:43:22 PM 40.6921 -72.9020 59° Northeast 424 488 16,500 1,875 Climbing FlightAware ADS-B
Mon 11:43:53 PM 40.7245 -72.8317 59° Northeast 428 493 17,600 1,935 Climbing FlightAware ADS-B
Mon 11:44:24 PM 40.7576 -72.7619 58° Northeast 437 503 18,500 1,742 Climbing FlightAware ADS-B
Mon 11:44:55 PM 40.7908 -72.6917 58° Northeast 443 510 19,400 1,742 Climbing FlightAware ADS-B
Mon 11:45:26 PM 40.8238 -72.6205 58° Northeast 446 513 20,300 1,645 Climbing FlightAware ADS-B
Mon 11:45:57 PM 40.8574 -72.5481 58° Northeast 453 521 21,100 1,452 Climbing FlightAware ADS-B
Mon 11:46:28 PM 40.8918 -72.4748 58° Northeast 459 528 21,800 1,429 Climbing FlightAware ADS-B
Mon 11:47:00 PM 40.9283 -72.3960 58° Northeast 466 536 22,600 1,452 Climbing FlightAware ADS-B
Mon 11:47:30 PM 40.9619 -72.3219 59° Northeast 470 541 23,300 1,364 Climbing FlightAware ADS-B
Mon 11:48:06 PM 41.0025 -72.2340 59° Northeast 475 547 24,100 1,250 Climbing FlightAware ADS-B
Mon 11:48:42 PM 41.0400 -72.1510 59° Northeast 480 552 24,800 1,186 Climbing FlightAware ADS-B
Mon 11:49:32 PM 41.1000 -72.0220 58° Northeast 490 564 25,800 1,140 Climbing FlightAware ADS-B
Mon 11:50:22 PM 41.1580 -71.8950 59° Northeast 497 572 26,700 1,011 Climbing FlightAware ADS-B
Mon 11:51:07 PM 41.2070 -71.7870 59° Northeast 502 578 27,400 1,133 Climbing FlightAware ADS-B
Mon 11:51:52 PM 41.2640 -71.6600 59° Northeast 504 580 28,400 1,271 Climbing FlightAware ADS-B
Mon 11:52:32 PM 41.3130 -71.5520 59° Northeast 503 579 29,200 1,200 Climbing FlightAware ADS-B
Mon 11:53:17 PM 41.3670 -71.4330 59° Northeast 502 578 30,100 1,200 Climbing FlightAware ADS-B
Mon 11:53:52 PM 41.4060 -71.3460 59° Northeast 501 577 30,800 750 Climbing FlightAware ADS-B
Mon 11:54:37 PM 41.4620 -71.2190 59° Northeast 501 577 31,100 200 Climbing FlightAware ADS-B
Mon 11:55:22 PM 41.5110 -71.1090 59° Northeast 500 575 31,100  Level FlightAware ADS-B
Mon 11:55:57 PM 41.5570 -71.0060 59° Northeast 500 575 31,100  Level FlightAware ADS-B
Mon 11:56:47 PM 41.6130 -70.8780 60° Northeast 500 575 31,100  Level FlightAware ADS-B
Mon 11:57:17 PM 41.6500 -70.7950 59° Northeast 500 575 31,100  Level FlightAware ADS-B
Mon 11:58:12 PM 41.7130 -70.6520 59° Northeast 501 577 31,100  Level FlightAware ADS-B
Mon 11:59:02 PM 41.7670 -70.5260 60° Northeast 501 577 31,100  Level FlightAware ADS-B
Mon 11:59:47 PM 41.8170 -70.4120 59° Northeast 501 577 31,100  Level FlightAware ADS-B
Tue 12:00:37 AM 41.8820 -70.2640 59° Northeast 501 577 31,100  Level FlightAware ADS-B
Tue 12:01:27 AM 41.9400 -70.1280 60° Northeast 496 571 31,100  Level FlightAware ADS-B
Tue 12:02:07 AM 41.9870 -70.0190 60° Northeast 496 571 31,100  Level FlightAware ADS-B
Tue 12:02:47 AM 42.0320 -69.9150 60° Northeast 500 575 31,100  Level FlightAware ADS-B
Tue 12:03:32 AM 42.0850 -69.7890 60° Northeast 496 571 31,100  Level FlightAware ADS-B
Tue 12:04:07 AM 42.1240 -69.6970 60° Northeast 497 572 31,100  Level FlightAware ADS-B
Tue 12:04:52 AM 42.1780 -69.5720 60° Northeast 496 571 31,100  Level FlightAware ADS-B
Tue 12:05:27 AM 42.2160 -69.4840 60° Northeast 496 571 31,100  Level FlightAware ADS-B
Tue 12:06:17 AM 42.2750 -69.3440 60° Northeast 497 572 31,100  Level FlightAware ADS-B
Tue 12:07:02 AM 42.3270 -69.2190 61° Northeast 496 571 31,100  Level FlightAware ADS-B
Tue 12:07:42 AM 42.3720 -69.1100 61° Northeast 495 570 31,100  Level FlightAware ADS-B
Tue 12:08:22 AM 42.4170 -69.0040 60° Northeast 493 567 31,100  Level FlightAware ADS-B
Tue 12:09:07 AM 42.4680 -68.8810 61° Northeast 493 567 31,100  Level FlightAware ADS-B
Tue 12:09:47 AM 42.5120 -68.7750 61° Northeast 493 567 31,100  Level FlightAware ADS-B
Tue 12:10:32 AM 42.5620 -68.6530 61° Northeast 493 567 31,100  Level FlightAware ADS-B
Tue 12:11:12 AM 42.6070 -68.5460 60° Northeast 493 567 31,100  Level FlightAware ADS-B
Tue 12:11:47 AM 42.6450 -68.4530 61° Northeast 494 568 31,100  Level FlightAware ADS-B
Tue 12:12:32 AM 42.6910 -68.3390 61° Northeast 495 570 31,100  Level FlightAware ADS-B
Tue 12:13:17 AM 42.7390 -68.2270 60° Northeast 495 570 31,100  Level FlightAware ADS-B
Tue 12:13:57 AM 42.7870 -68.1060 62° Northeast 495 570 31,100  Level FlightAware ADS-B
Tue 12:14:37 AM 42.8240 -68.0130 61° Northeast 495 570 31,100  Level FlightAware ADS-B
Tue 12:15:27 AM 42.8870 -67.8560 61° Northeast 490 564 31,100  Level FlightAware ADS-B
Tue 12:16:07 AM 42.9290 -67.7500 62° Northeast 490 564 31,100  Level FlightAware ADS-B
Tue 12:17:02 AM 42.9910 -67.5970 61° Northeast 488 562 31,100  Level FlightAware ADS-B
Tue 12:17:42 AM 43.0330 -67.4910 62° Northeast 487 560 31,100  Level FlightAware ADS-B
Tue 12:18:27 AM 43.0810 -67.3720 61° Northeast 486 559 31,100  Level FlightAware ADS-B
Tue 12:19:07 AM 43.1270 -67.2550 62° Northeast 485 558 31,100  Level FlightAware ADS-B
Tue 12:19:52 AM 43.1710 -67.1430 62° Northeast 484 557 31,100  Level FlightAware ADS-B
Tue 12:20:32 AM 43.2170 -67.0260 62° Northeast 485 558 31,100  Level FlightAware ADS-B
Tue 12:21:17 AM 43.2650 -66.9050 61° Northeast 485 558 31,100  Level FlightAware ADS-B
Tue 12:21:57 AM 43.3080 -66.7940 62° Northeast 484 557 31,100  Level FlightAware ADS-B
Tue 12:22:37 AM 43.3490 -66.6880 62° Northeast 484 557 31,100  Level FlightAware ADS-B
Tue 12:23:22 AM 43.3990 -66.5600 62° Northeast 484 557 31,100  Level FlightAware ADS-B
Tue 12:24:02 AM 43.4390 -66.4550 62° Northeast 486 559 31,100  Level FlightAware ADS-B
Tue 12:24:47 AM 43.4860 -66.3330 62° Northeast 490 564 31,100  Level FlightAware ADS-B
Tue 12:25:27 AM 43.5290 -66.2210 62° Northeast 492 566 31,100  Level FlightAware ADS-B
Tue 12:26:07 AM 43.5720 -66.1090 62° Northeast 494 568 31,100  Level FlightAware ADS-B
Tue 12:26:52 AM 43.6200 -65.9810 63° Northeast 497 572 31,100  Level FlightAware ADS-B
Tue 12:27:32 AM 43.6630 -65.8690 62° Northeast 497 572 31,100  Level FlightAware ADS-B
Tue 12:28:17 AM 43.7110 -65.7420 62° Northeast 497 572 31,100  Level FlightAware ADS-B
Tue 12:28:57 AM 43.7540 -65.6260 63° Northeast 499 574 31,100  Level FlightAware ADS-B
Tue 12:29:37 AM 43.7960 -65.5140 63° Northeast 500 575 31,100  Level FlightAware ADS-B
Tue 12:30:22 AM 43.8440 -65.3830 63° Northeast 502 578 31,100  Level FlightAware ADS-B
Tue 12:31:02 AM 43.8860 -65.2700 63° Northeast 504 580 31,100  Level FlightAware ADS-B
Tue 12:31:47 AM 43.9340 -65.1380 63° Northeast 508 585 31,100  Level FlightAware ADS-B
Tue 12:32:27 AM 43.9770 -65.0210 63° Northeast 509 586 31,100  Level FlightAware ADS-B
Tue 12:33:07 AM 44.0190 -64.9070 63° Northeast 511 588 31,100  Level FlightAware ADS-B
Tue 12:33:52 AM 44.0670 -64.7740 63° Northeast 513 590 31,100  Level FlightAware ADS-B
Tue 12:34:32 AM 44.1070 -64.6630 63° Northeast 513 590 31,100  Level FlightAware ADS-B
Tue 12:35:17 AM 44.1550 -64.5300 63° Northeast 515 593 31,100  Level FlightAware ADS-B
Tue 12:35:57 AM 44.2010 -64.4020 63° Northeast 517 595 31,100  Level FlightAware ADS-B
Tue 12:36:37 AM 44.2420 -64.2870 64° Northeast 517 595 31,100  Level FlightAware ADS-B
Tue 12:37:22 AM 44.2890 -64.1520 64° Northeast 520 598 31,100  Level FlightAware ADS-B
Tue 12:37:57 AM 44.3310 -64.0350 63° Northeast 521 600 31,100  Level FlightAware ADS-B
Tue 12:41:32 AM 44.5530 -63.3960 64° Northeast 524 603 31,100  Level FlightAware ADS-B
Tue 12:42:12 AM 44.5950 -63.2710 65° Northeast 520 598 31,100  Level FlightAware ADS-B
Tue 12:42:57 AM 44.6380 -63.1450 64° Northeast 516 594 31,100  Level FlightAware ADS-B
Tue 12:43:42 AM 44.6910 -62.9880 65° Northeast 514 592 31,100  Level FlightAware ADS-B
Tue 12:44:22 AM 44.7280 -62.8810 64° Northeast 513 590 31,100  Level FlightAware ADS-B
Tue 12:45:27 AM 44.7930 -62.6850 65° Northeast 513 590 31,100  Level FlightAware ADS-B
Tue 12:46:17 AM 44.8350 -62.5560 65° Northeast 513 590 31,100  Level FlightAware ADS-B
Tue 12:46:47 AM 44.8610 -62.4780 65° Northeast 513 590 31,100  Level FlightAware ADS-B
Tue 12:47:37 AM 44.9040 -62.3490 65° Northeast 513 590 31,100  Level FlightAware ADS-B
Tue 12:48:17 AM 44.9380 -62.2460 65° Northeast 513 590 31,100  Level FlightAware ADS-B
Tue 12:48:57 AM 44.9720 -62.1430 65° Northeast 513 590 31,100  Level FlightAware ADS-B
Tue 12:49:37 AM 45.0060 -62.0390 65° Northeast 513 590 31,100  Level FlightAware ADS-B
Tue 12:50:27 AM 45.0490 -61.9100 65° Northeast 513 590 31,100  Level FlightAware ADS-B
Tue 12:51:07 AM 45.0830 -61.8060 65° Northeast 513 590 31,100  Level FlightAware ADS-B
Tue 12:51:47 AM 45.1170 -61.7030 65° Northeast 513 590 31,100  Level FlightAware ADS-B
Tue 12:52:27 AM 45.1510 -61.5990 65° Northeast 513 590 31,100  Level FlightAware ADS-B
Tue 12:53:07 AM 45.1850 -61.4950 65° Northeast 513 590 31,100  Level FlightAware ADS-B
Tue 12:53:57 AM 45.2280 -61.3660 65° Northeast 513 590 31,100  Level FlightAware ADS-B
Tue 12:54:37 AM 45.3330 -61.0060 67° East 523 602 31,100  Level FlightAware ADS-B
Tue 12:55:22 AM 45.3790 -60.8540 67° East 527 606 31,100  Level FlightAware ADS-B
Tue 12:56:02 AM 45.4190 -60.7240 66° East 528 608 31,100  Level FlightAware ADS-B
Tue 12:56:42 AM 45.4580 -60.5980 66° East 529 609 31,100  Level FlightAware ADS-B
Tue 12:57:27 AM 45.5010 -60.4570 66° East 529 609 31,100  Level FlightAware ADS-B
Tue 12:58:07 AM 45.5400 -60.3280 67° East 529 609 31,100  Level FlightAware ADS-B
Tue 12:58:52 AM 45.5840 -60.1790 67° East 529 609 31,100  Level FlightAware ADS-B
Tue 12:59:32 AM 45.6220 -60.0530 67° East 528 608 31,100 150 Level FlightAware ADS-B
Tue 01:00:12 AM 45.6600 -59.9240 67° East 524 603 31,300 494 Climbing FlightAware ADS-B
Tue 01:00:57 AM 45.7020 -59.7830 67° East 524 603 31,800 706 Climbing FlightAware ADS-B
Tue 01:01:37 AM 45.7400 -59.6550 67° East 520 598 32,300 675 Climbing FlightAware ADS-B
Tue 01:02:17 AM 45.7760 -59.5300 68° East 515 593 32,700 494 Climbing FlightAware ADS-B
Tue 01:03:02 AM 45.8180 -59.3850 67° East 515 593 33,000 282 Climbing FlightAware ADS-B
Tue 01:03:42 AM 45.8550 -59.2580 67° East 516 594 33,100 71 Climbing FlightAware ADS-B
Tue 01:04:27 AM 45.8950 -59.1200 67° East 514 592 33,100  Level FlightAware ADS-B
Tue 01:05:07 AM 45.9300 -58.9950 68° East 513 590 33,100  Level FlightAware ADS-B
Tue 01:05:47 AM 45.9670 -58.8660 68° East 512 589 33,100  Level FlightAware ADS-B
Tue 01:06:32 AM 46.0080 -58.7200 68° East 514 592 33,100  Level FlightAware ADS-B
Tue 01:07:12 AM 46.0430 -58.5960 68° East 516 594 33,100  Level FlightAware ADS-B
Tue 01:07:57 AM 46.0830 -58.4530 68° East 518 596 33,100  Level FlightAware ADS-B
Tue 01:08:37 AM 46.1190 -58.3240 68° East 520 598 33,100  Level FlightAware ADS-B
Tue 01:09:47 AM 46.1780 -58.1080 68° East 520 598 33,100  Level FlightAware ADS-B
Tue 01:10:27 AM 46.2090 -57.9990 68° East 520 598 33,100  Level FlightAware ADS-B
Tue 01:11:12 AM 46.2550 -57.8280 69° East 520 598 33,100  Level FlightAware ADS-B
Tue 01:11:52 AM 46.2890 -57.7040 68° East 521 600 33,100  Level FlightAware ADS-B
Tue 01:12:32 AM 46.3190 -57.5940 68° East 521 600 33,100  Level FlightAware ADS-B
Tue 01:13:12 AM 46.3500 -57.4840 68° East 521 600 33,100  Level FlightAware ADS-B
Tue 01:13:57 AM 46.4000 -57.2860 70° East 522 601 33,100  Level FlightAware ADS-B
Tue 01:14:42 AM 46.4350 -57.1520 69° East 522 601 33,100  Level FlightAware ADS-B
Tue 01:15:22 AM 46.4650 -57.0410 69° East 522 601 33,100  Level FlightAware ADS-B
Tue 01:16:07 AM 46.5050 -56.8690 71° East 524 603 33,100  Level FlightAware ADS-B
Tue 01:16:47 AM 46.5400 -56.7320 70° East 524 603 33,100  Level FlightAware ADS-B
Tue 01:17:27 AM 46.5730 -56.5990 70° East 524 603 33,100  Level FlightAware ADS-B
Tue 01:18:12 AM 46.6090 -56.4540 70° East 524 603 33,100  Level FlightAware ADS-B
Tue 01:18:52 AM 46.6420 -56.3180 70° East 523 602 33,100  Level FlightAware ADS-B
Tue 01:19:37 AM 46.6760 -56.1820 70° East 523 602 33,100  Level FlightAware ADS-B
Tue 01:20:17 AM 46.7110 -56.0380 70° East 523 602 33,100  Level FlightAware ADS-B
Tue 01:20:47 AM 46.7330 -55.9450 71° East 523 602 33,100 86 Level FlightAware ADS-B
Tue 01:21:27 AM 46.7670 -55.8030 71° East 523 602 33,200 282 Climbing FlightAware ADS-B
Tue 01:22:12 AM 46.8030 -55.6530 71° East 521 600 33,500 424 Climbing FlightAware ADS-B
Tue 01:22:52 AM 46.8340 -55.5220 71° East 525 604 33,800 450 Climbing FlightAware ADS-B
Tue 01:23:32 AM 46.8660 -55.3860 71° East 529 609 34,100 212 Climbing FlightAware ADS-B
Tue 01:24:17 AM 46.9020 -55.2330 71° East 527 606 34,100  Level FlightAware ADS-B
Tue 01:24:57 AM 46.9340 -55.0990 71° East 525 604 34,100  Level FlightAware ADS-B
Tue 01:25:42 AM 46.9690 -54.9490 71° East 525 604 34,100  Level FlightAware ADS-B
Tue 01:26:22 AM 46.9990 -54.8180 71° East 525 604 34,100  Level FlightAware ADS-B
Tue 01:27:02 AM 47.0300 -54.6810 72° East 524 603 34,100  Level FlightAware ADS-B
Tue 01:27:47 AM 47.0660 -54.5260 71° East 524 603 34,100  Level FlightAware ADS-B
Tue 01:28:27 AM 47.0960 -54.3930 72° East 524 603 34,100  Level FlightAware ADS-B
Tue 01:29:07 AM 47.1270 -54.2550 72° East 523 602 34,100  Level FlightAware ADS-B
Tue 01:29:52 AM 47.1600 -54.1060 72° East 523 602 34,100  Level FlightAware ADS-B
Tue 01:30:37 AM 47.1930 -53.9560 72° East 522 601 34,100  Level FlightAware ADS-B
Tue 01:31:17 AM 47.2240 -53.8180 72° East 523 602 34,100  Level FlightAware ADS-B
Tue 01:31:57 AM 47.2530 -53.6830 72° East 523 602 34,100  Level FlightAware ADS-B
Tue 01:32:42 AM 47.2870 -53.5290 72° East 523 602 34,100  Level FlightAware ADS-B
Tue 01:33:22 AM 47.3160 -53.3950 72° East 524 603 34,100  Level FlightAware ADS-B
Tue 01:34:02 AM 47.3460 -53.2570 72° East 526 605 34,100  Level FlightAware ADS-B
Tue 01:34:47 AM 47.3790 -53.1050 72° East 527 606 34,100  Level FlightAware ADS-B
Tue 01:35:27 AM 47.4070 -52.9680 73° East 528 608 34,100  Level FlightAware ADS-B
Tue 01:36:12 AM 47.4410 -52.8100 72° East 528 608 34,100  Level FlightAware ADS-B
Tue 01:36:52 AM 47.4690 -52.6760 73° East 529 609 34,100  Level FlightAware ADS-B
Tue 01:37:37 AM 47.5010 -52.5210 73° East 530 610 34,100  Level FlightAware ADS-B
Tue 01:38:17 AM 47.5310 -52.3770 73° East 532 612 34,100  Level FlightAware ADS-B
Tue 01:38:57 AM 47.5590 -52.2390 73° East 532 612 34,100  Level FlightAware ADS-B
Tue 01:39:37 AM 47.5880 -52.0990 73° East 533 613 34,100  Level FlightAware ADS-B
Tue 01:40:22 AM 47.6200 -51.9430 73° East 535 616 34,100  Level FlightAware ADS-B
Tue 01:41:07 AM 47.6510 -51.7880 73° East 537 618 34,100  Level FlightAware ADS-B
Tue 01:41:47 AM 47.6800 -51.6430 73° East 538 619 34,100  Level FlightAware ADS-B
Tue 01:42:22 AM 47.7030 -51.5260 74° East 539 620 34,100  Level FlightAware ADS-B
Tue 01:43:12 AM 47.7390 -51.3430 74° East 539 620 34,100  Level FlightAware ADS-B
Tue 01:43:52 AM 47.7670 -51.2030 73° East 543 625 34,100  Level FlightAware ADS-B
Tue 01:44:32 AM 47.7950 -51.0580 74° East 545 627 34,100  Level FlightAware ADS-B
Tue 01:45:17 AM 47.8270 -50.8930 74° East 546 628 34,100  Level FlightAware ADS-B
Tue 01:46:07 AM 47.8590 -50.7210 74° East 546 628 34,100  Level FlightAware ADS-B
Tue 01:46:57 AM 47.8940 -50.5410 74° East 547 629 34,100  Level FlightAware ADS-B
Tue 01:47:37 AM 47.9170 -50.4180 74° East 547 629 34,100  Level FlightAware ADS-B
Tue 01:48:17 AM 47.9410 -50.2950 74° East 547 629 34,100  Level FlightAware ADS-B
Tue 01:48:57 AM 47.9650 -50.1710 74° East 547 629 34,100  Level FlightAware ADS-B
Tue 01:49:37 AM 47.9880 -50.0480 74° East 547 629 34,100  Level FlightAware ADS-B
Tue 01:50:17 AM 48.0120 -49.9240 74° East 547 629 34,100 -72 Level FlightAware ADS-B
Tue 01:51:00 AM 48.0000 -50.0000 78° East 524 603 34,000  Descending ETMS Enhanced Traffic Management System
Tue 01:51:07 AM 48.0420 -49.7690 74° East 547 629 34,100 128 Climbing FlightAware ADS-B
Tue 01:51:47 AM 48.0650 -49.6460 74° East 547 629 34,100  Level FlightAware ADS-B
Tue 01:51:52 AM 48.0500 -49.4000 78° East 550 633 34,100  Level Gander Center
Tue 01:52:27 AM 48.0890 -49.5220 74° East 547 629 34,100  Level FlightAware ADS-B
Tue 01:52:52 AM 48.0833 -49.2000 76° East 540 621 34,100  Level Gander Center
Tue 01:53:07 AM 48.1130 -49.3980 74° East 547 629 34,100  Level FlightAware ADS-B
Tue 01:53:47 AM 48.1370 -49.2740 74° East 547 629 34,100  Level FlightAware ADS-B
Tue 01:53:52 AM 48.1167 -48.9833 77° East 540 621 34,100  Level Gander Center
Tue 01:54:37 AM 48.1660 -49.1190 74° East 547 629 34,100  Level FlightAware ADS-B
Tue 01:54:52 AM 48.1500 -48.7500 78° East 540 621 34,100  Level Gander Center
Tue 01:55:17 AM 48.1900 -48.9950 74° East 547 629 34,100  Level FlightAware ADS-B
Tue 01:55:52 AM 48.1833 -48.5333 77° East 530 610 34,100  Level Gander Center
Tue 01:55:57 AM 48.2140 -48.8710 74° East 547 629 34,100  Level FlightAware ADS-B
Tue 01:56:52 AM 48.2000 -48.3333 83° East 530 610 34,100  Level Gander Center
Tue 01:57:52 AM 48.2333 -48.1167 77° East 530 610 34,100  Level Gander Center
Tue 01:58:52 AM 48.2667 -47.8833 78° East 530 610 34,100  Level Gander Center
Tue 01:59:52 AM 48.3000 -47.6667 77° East 530 610 34,100  Level Gander Center
Tue 02:02:23 AM 48.3500 -47.1500 82° East 520 598 34,100 -3 Level Gander Center
Tue 02:04:00 AM 48.3938 -46.7904 79° East  Level FlightAware Approximate
Tue 02:11:00 AM 48.5636 -45.2887 80° East  Level FlightAware Approximate
Tue 02:12:00 AM 48.5863 -45.0734 81° East  Level FlightAware Approximate
Tue 02:13:00 AM 48.6086 -44.8578 81° East  Level FlightAware Approximate
Tue 02:14:00 AM 48.6305 -44.6421 81° East  Level FlightAware Approximate
Tue 02:15:00 AM 48.6519 -44.4262 81° East  Level FlightAware Approximate
Tue 02:16:00 AM 48.6730 -44.2101 82° East  Level FlightAware Approximate
Tue 02:17:00 AM 48.6936 -43.9939 82° East  Level FlightAware Approximate
Tue 02:18:00 AM 48.7139 -43.7774 82° East  Level FlightAware Approximate
Tue 02:19:00 AM 48.7337 -43.5608 82° East  Level FlightAware Approximate
Tue 02:20:00 AM 48.7532 -43.3441 82° East  Level FlightAware Approximate
Tue 02:21:00 AM 48.7722 -43.1271 82° East  Level FlightAware Approximate
Tue 02:22:00 AM 48.7908 -42.9100 83° East  Level FlightAware Approximate
Tue 02:23:00 AM 48.8090 -42.6927 83° East  Level FlightAware Approximate
Tue 02:24:00 AM 48.8268 -42.4753 83° East  Level FlightAware Approximate
Tue 02:25:00 AM 48.8442 -42.2577 83° East  Level FlightAware Approximate
Tue 02:26:00 AM 48.8612 -42.0400 83° East  Level FlightAware Approximate
Tue 02:27:00 AM 48.8778 -41.8221 83° East  Level FlightAware Approximate
Tue 02:28:00 AM 48.8940 -41.6041 83° East  Level FlightAware Approximate
Tue 02:29:00 AM 48.9097 -41.3860 84° East  Level FlightAware Approximate
Tue 02:30:00 AM 48.9251 -41.1677 84° East  Level FlightAware Approximate
Tue 02:31:00 AM 48.9400 -40.9493 84° East  Level FlightAware Approximate
Tue 02:32:00 AM 48.9545 -40.7307 84° East  Level FlightAware Approximate
Tue 02:33:00 AM 48.9686 -40.5120 84° East  Level FlightAware Approximate
Tue 02:34:00 AM 48.9823 -40.2932 84° East  Level FlightAware Approximate
Tue 02:35:00 AM 48.9956 -40.0743 85° East  Level FlightAware Approximate
Tue 02:36:00 AM 49.0206 -39.8581 77° East  Level FlightAware Approximate
Tue 02:37:00 AM 49.0514 -39.6432 78° East  Level FlightAware Approximate
Tue 02:37:00 AM 49.0000 -40.0000 77° East 502 578 34,000  Level ETMS Enhanced Traffic Management System
Tue 02:38:00 AM 49.0819 -39.4280 78° East  Level FlightAware Approximate
Tue 02:39:00 AM 49.1113 -39.2175 78° East  Level FlightAware Approximate
Tue 02:40:00 AM 49.1402 -39.0068 78° East  Level FlightAware Approximate
Tue 02:41:00 AM 49.1688 -38.7959 78° East  Level FlightAware Approximate
Tue 02:42:00 AM 49.1970 -38.5847 78° East  Level FlightAware Approximate
Tue 02:43:00 AM 49.2031 -38.5389 79° East 502 578 34,000  Level FlightAware Transoceanic
Tue 02:44:00 AM 49.2306 -38.3292 79° East 502 578 34,000  Level FlightAware Transoceanic
Tue 02:45:00 AM 49.2577 -38.1193 79° East 502 578 34,000  Level FlightAware Transoceanic
Tue 02:46:00 AM 49.2845 -37.9092 79° East 502 578 34,000  Level FlightAware Transoceanic
Tue 02:47:00 AM 49.3108 -37.6988 79° East 502 578 34,000  Level FlightAware Transoceanic
Tue 02:48:00 AM 49.3368 -37.4882 79° East 502 578 34,000  Level FlightAware Transoceanic
Tue 02:49:00 AM 49.3624 -37.2774 80° East 502 578 34,000  Level FlightAware Transoceanic
Tue 02:50:00 AM 49.3876 -37.0664 80° East 502 578 34,000  Level FlightAware Transoceanic
Tue 02:51:00 AM 49.4124 -36.8551 80° East 502 578 34,000  Level FlightAware Transoceanic
Tue 02:52:00 AM 49.4369 -36.6437 80° East 502 578 34,000  Level FlightAware Transoceanic
Tue 02:53:00 AM 49.4609 -36.4320 80° East 502 578 34,000  Level FlightAware Transoceanic
Tue 02:54:00 AM 49.4846 -36.2201 80° East 502 578 34,000  Level FlightAware Transoceanic
Tue 02:55:00 AM 49.5079 -36.0080 80° East 502 578 34,000  Level FlightAware Transoceanic
Tue 02:56:00 AM 49.5308 -35.7957 81° East 502 578 34,000  Level FlightAware Transoceanic
Tue 02:57:00 AM 49.5533 -35.5833 81° East 502 578 34,000  Level FlightAware Transoceanic
Tue 02:58:00 AM 49.5754 -35.3706 81° East 502 578 34,000  Level FlightAware Transoceanic
Tue 02:59:00 AM 49.5971 -35.1577 81° East 502 578 34,000  Level FlightAware Transoceanic
Tue 03:00:00 AM 49.6185 -34.9447 81° East 502 578 34,000  Level FlightAware Transoceanic
Tue 03:01:00 AM 49.6394 -34.7314 81° East 502 578 34,000  Level FlightAware Transoceanic
Tue 03:02:00 AM 49.6600 -34.5180 82° East 502 578 34,000  Level FlightAware Transoceanic
Tue 03:03:00 AM 49.6801 -34.3044 82° East 502 578 34,000  Level FlightAware Transoceanic
Tue 03:04:00 AM 49.6999 -34.0906 82° East 502 578 34,000  Level FlightAware Transoceanic
Tue 03:05:00 AM 49.7192 -33.8767 82° East 502 578 34,000  Level FlightAware Transoceanic
Tue 03:06:00 AM 49.7382 -33.6626 82° East 502 578 34,000  Level FlightAware Transoceanic
Tue 03:07:00 AM 49.7568 -33.4483 82° East 502 578 34,000  Level FlightAware Transoceanic
Tue 03:08:00 AM 49.7750 -33.2339 83° East 502 578 34,000  Level FlightAware Transoceanic
Tue 03:09:00 AM 49.7928 -33.0193 83° East 502 578 34,000  Level FlightAware Transoceanic
Tue 03:10:00 AM 49.8102 -32.8045 83° East 502 578 34,000  Level FlightAware Transoceanic
Tue 03:11:00 AM 49.8272 -32.5896 83° East 502 578 34,000  Level FlightAware Transoceanic
Tue 03:12:00 AM 49.8438 -32.3745 83° East 502 578 34,000  Level FlightAware Transoceanic
Tue 03:13:00 AM 49.8600 -32.1593 83° East 502 578 34,000  Level FlightAware Transoceanic
Tue 03:14:00 AM 49.8758 -31.9440 84° East 502 578 34,000  Level FlightAware Transoceanic
Tue 03:15:00 AM 49.8912 -31.7285 84° East 502 578 34,000  Level FlightAware Transoceanic
Tue 03:16:00 AM 49.9062 -31.5129 84° East 502 578 34,000  Level FlightAware Transoceanic
Tue 03:17:00 AM 49.9208 -31.2971 84° East 502 578 34,000  Level FlightAware Transoceanic
Tue 03:18:00 AM 49.9350 -31.0812 84° East 502 578 34,000  Level FlightAware Transoceanic
Tue 03:19:00 AM 49.9488 -30.8652 84° East 502 578 34,000  Level FlightAware Transoceanic
Tue 03:20:00 AM 49.9622 -30.6491 85° East 502 578 34,000  Level FlightAware Transoceanic
Tue 03:21:00 AM 49.9752 -30.4328 85° East 502 578 34,000  Level FlightAware Transoceanic
Tue 03:22:00 AM 49.9878 -30.2165 85° East 502 578 34,000  Level FlightAware Transoceanic
Tue 03:23:00 AM 50.0001 -29.9982 85° East  Level FlightAware Approximate
Tue 03:24:00 AM 50.0001 -29.9963 86° East  Level FlightAware Approximate
Tue 03:24:43 AM 50.0000 -30.0000 86° East 513 590 34,000  Level ETMS Enhanced Traffic Management System
Tue 03:25:00 AM 50.0090 -29.7776 86° East  Level FlightAware Approximate
Tue 03:26:00 AM 50.0175 -29.5587 86° East  Level FlightAware Approximate
Tue 03:27:00 AM 50.0256 -29.3398 87° East  Level FlightAware Approximate
Tue 03:28:00 AM 50.0332 -29.1208 87° East  Level FlightAware Approximate
Tue 03:29:00 AM 50.0404 -28.9018 87° East  Level FlightAware Approximate
Tue 03:30:00 AM 50.0565 -28.4471 87° East 513 590 34,000  Level FlightAware Transoceanic
Tue 03:31:00 AM 50.0628 -28.2250 88° East 513 590 34,000  Level FlightAware Transoceanic
Tue 03:32:00 AM 50.0688 -28.0029 88° East 513 590 34,000  Level FlightAware Transoceanic
Tue 03:33:00 AM 50.0743 -27.7806 88° East 513 590 34,000  Level FlightAware Transoceanic
Tue 03:34:00 AM 50.0794 -27.5584 88° East 513 590 34,000  Level FlightAware Transoceanic
Tue 03:35:00 AM 50.0841 -27.3361 88° East 513 590 34,000  Level FlightAware Transoceanic
Tue 03:36:00 AM 50.0883 -27.1137 88° East 513 590 34,000  Level FlightAware Transoceanic
Tue 03:37:00 AM 50.0922 -26.8913 89° East 513 590 34,000  Level FlightAware Transoceanic
Tue 03:38:00 AM 50.0956 -26.6689 89° East 513 590 34,000  Level FlightAware Transoceanic
Tue 03:39:00 AM 50.0985 -26.4464 89° East 513 590 34,000  Level FlightAware Transoceanic
Tue 03:40:00 AM 50.1011 -26.2239 89° East 513 590 34,000  Level FlightAware Transoceanic
Tue 03:41:00 AM 50.1032 -26.0014 89° East 513 590 34,000  Level FlightAware Transoceanic
Tue 03:42:00 AM 50.1049 -25.7789 89° East 513 590 34,000  Level FlightAware Transoceanic
Tue 03:43:00 AM 50.1062 -25.5564 90° East 513 590 34,000  Level FlightAware Transoceanic
Tue 03:44:00 AM 50.1071 -25.3338 90° East 513 590 34,000  Level FlightAware Transoceanic
Tue 03:45:00 AM 50.1075 -25.1113 90° East 513 590 34,000  Level FlightAware Transoceanic
Tue 03:46:00 AM 50.1075 -24.8887 90° East 513 590 34,000  Level FlightAware Transoceanic
Tue 03:47:00 AM 50.1071 -24.6662 90° East 513 590 34,000  Level FlightAware Transoceanic
Tue 03:48:00 AM 50.1062 -24.4436 90° East 513 590 34,000  Level FlightAware Transoceanic
Tue 03:49:00 AM 50.1049 -24.2211 91° East 513 590 34,000  Level FlightAware Transoceanic
Tue 03:50:00 AM 50.1032 -23.9986 91° East 513 590 34,000  Level FlightAware Transoceanic
Tue 03:51:00 AM 50.1011 -23.7761 91° East 513 590 34,000  Level FlightAware Transoceanic
Tue 03:52:00 AM 50.0985 -23.5536 91° East 513 590 34,000  Level FlightAware Transoceanic
Tue 03:53:00 AM 50.0956 -23.3311 91° East 513 590 34,000  Level FlightAware Transoceanic
Tue 03:54:00 AM 50.0922 -23.1087 91° East 513 590 34,000  Level FlightAware Transoceanic
Tue 03:55:00 AM 50.0883 -22.8863 92° East 513 590 34,000  Level FlightAware Transoceanic
Tue 03:56:00 AM 50.0841 -22.6639 92° East 513 590 34,000  Level FlightAware Transoceanic
Tue 03:57:00 AM 50.0794 -22.4416 92° East 513 590 34,000  Level FlightAware Transoceanic
Tue 03:58:00 AM 50.0743 -22.2194 92° East 513 590 34,000  Level FlightAware Transoceanic
Tue 03:59:00 AM 50.0688 -21.9971 92° East 513 590 34,000  Level FlightAware Transoceanic
Tue 04:00:00 AM 50.0628 -21.7750 92° East 513 590 34,000  Level FlightAware Transoceanic
Tue 04:01:00 AM 50.0565 -21.5529 93° East 513 590 34,000  Level FlightAware Transoceanic
Tue 04:02:00 AM 50.0497 -21.3308 93° East 513 590 34,000  Level FlightAware Transoceanic
Tue 04:03:00 AM 50.0424 -21.1088 93° East 513 590 34,000  Level FlightAware Transoceanic
Tue 04:04:00 AM 50.0348 -20.8869 93° East 513 590 34,000  Level FlightAware Transoceanic
Tue 04:05:00 AM 50.0267 -20.6651 93° East 513 590 34,000  Level FlightAware Transoceanic
Tue 04:06:00 AM 50.0182 -20.4433 93° East 513 590 34,000  Level FlightAware Transoceanic
Tue 04:07:00 AM 50.0093 -20.2216 94° East 513 590 34,000 23 Level FlightAware Transoceanic
Tue 04:08:00 AM 50.0001 -20.0029 94° East  Level FlightAware Approximate
Tue 04:09:00 AM 49.9908 -19.7842 94° East  Level FlightAware Approximate
Tue 04:10:00 AM 49.9931 -19.7869 93° East  Level FlightAware Approximate
Tue 04:11:00 AM 49.9856 -19.5684 93° East  Level FlightAware Approximate
Tue 04:12:00 AM 49.9776 -19.3501 93° East  Level FlightAware Approximate
Tue 04:13:00 AM 49.9693 -19.1318 93° East  Level FlightAware Approximate
Tue 04:14:00 AM 49.9606 -18.9135 93° East  Level FlightAware Approximate
Tue 04:15:00 AM 49.9514 -18.6954 94° East  Level FlightAware Approximate
Tue 04:16:00 AM 49.9419 -18.4774 94° East  Level FlightAware Approximate
Tue 04:17:00 AM 49.9319 -18.2594 94° East  Level FlightAware Approximate
Tue 04:18:00 AM 49.9215 -18.0415 94° East  Level FlightAware Approximate
Tue 04:19:00 AM 49.9107 -17.8237 94° East  Level FlightAware Approximate
Tue 04:20:00 AM 49.8995 -17.6061 94° East  Level FlightAware Approximate
Tue 04:21:00 AM 49.8879 -17.3885 95° East  Level FlightAware Approximate
Tue 04:22:00 AM 49.8759 -17.1710 95° East  Level FlightAware Approximate
Tue 04:23:00 AM 49.8635 -16.9537 95° East  Level FlightAware Approximate
Tue 04:24:00 AM 49.8507 -16.7364 95° East  Level FlightAware Approximate
Tue 04:25:00 AM 49.8375 -16.5193 95° East  Level FlightAware Approximate
Tue 04:26:00 AM 49.8238 -16.3023 95° East  Level FlightAware Approximate
Tue 04:27:00 AM 49.8098 -16.0854 96° East  Level FlightAware Approximate
Tue 04:28:00 AM 49.7953 -15.8686 96° East  Level FlightAware Approximate
Tue 04:29:00 AM 49.7805 -15.6520 96° East  Level FlightAware Approximate
Tue 04:30:00 AM 49.7653 -15.4355 96° East  Level FlightAware Approximate
Tue 04:31:00 AM 49.7496 -15.2192 96° East  Level FlightAware Approximate
Tue 04:32:00 AM 49.7336 -15.0029 96° East  Level FlightAware Approximate
Tue 04:33:00 AM 49.7168 -14.7870 97° East  Level FlightAware Approximate
Tue 04:34:00 AM 49.6996 -14.5711 97° East  Level FlightAware Approximate
Tue 04:35:00 AM 49.6820 -14.3554 97° East  Level FlightAware Approximate
Tue 04:36:00 AM 49.6641 -14.1399 97° East  Level FlightAware Approximate
Tue 04:37:00 AM 49.6457 -13.9245 97° East  Level FlightAware Approximate
Tue 04:38:00 AM 49.6269 -13.7093 98° East  Level FlightAware Approximate
Tue 04:39:00 AM 49.6077 -13.4942 98° East  Level FlightAware Approximate
Tue 04:40:00 AM 49.5882 -13.2793 98° East  Level FlightAware Approximate
Tue 04:41:00 AM 49.5682 -13.0646 98° East  Level FlightAware Approximate
Tue 04:42:00 AM 49.5478 -12.8501 98° East  Level FlightAware Approximate
Tue 04:43:00 AM 49.5274 -12.6357 98° East  Level FlightAware Approximate
Tue 04:44:00 AM 49.5073 -12.4213 98° East  Level FlightAware Approximate
Tue 04:45:00 AM 49.4868 -12.2070 98° East  Level FlightAware Approximate
Tue 04:46:00 AM 49.4660 -11.9930 98° East  Level FlightAware Approximate
Tue 04:47:00 AM 49.4447 -11.7791 99° East  Level FlightAware Approximate
Tue 04:48:00 AM 49.4230 -11.5654 99° East  Level FlightAware Approximate
Tue 04:49:00 AM 49.4010 -11.3519 99° East  Level FlightAware Approximate
Tue 04:50:00 AM 49.3785 -11.1386 99° East  Level FlightAware Approximate
Tue 04:51:00 AM 49.3557 -10.9255 99° East  Level FlightAware Approximate
Tue 04:52:00 AM 49.3325 -10.7126 99° East  Level FlightAware Approximate
Tue 04:53:00 AM 49.3088 -10.4999 100° East  Level FlightAware Approximate
Tue 04:53:32 AM 49.3800 -9.8540 100° East 530 610 35,100  Level FlightAware ADS-B
Tue 04:54:00 AM 49.2848 -10.2874 100° East  Level FlightAware Approximate
Tue 04:54:12 AM 49.3600 -9.7230 103° East 530 610 35,100  Level FlightAware ADS-B
Tue 04:54:52 AM 49.3410 -9.5980 103° East 530 610 35,100  Level FlightAware ADS-B
Tue 04:55:32 AM 49.3230 -9.4730 102° East 530 610 35,100  Level FlightAware ADS-B
Tue 04:56:12 AM 49.3040 -9.3490 103° East 530 610 35,100  Level FlightAware ADS-B
Tue 04:57:07 AM 49.2570 -9.0870 105° East 533 613 35,100 -1,067 Level FlightAware ADS-B
Tue 04:57:42 AM 49.2417 -8.9895 105° East 490 564 33,500  Descending FlightAware UK
Tue 04:57:57 AM 49.2250 -8.8910 105° East 534 615 35,100  Climbing FlightAware ADS-B
Tue 04:58:12 AM 49.2237 -8.8798 105° East 490 564 33,500 -2,909 Descending FlightAware UK
Tue 04:58:30 AM 49.2127 -8.8138 104° East 490 564 33,500 3,840 Level FlightAware UK
Tue 04:58:37 AM 49.2000 -8.7420 104° East 535 616 35,100  Climbing FlightAware ADS-B
Tue 04:58:54 AM 49.1979 -8.7259 104° East 490 564 33,500  Descending FlightAware UK
Tue 04:59:12 AM 49.1780 -8.6100 104° East 536 617 35,100  Climbing FlightAware ADS-B
Tue 04:59:30 AM 49.1759 -8.5938 104° East 490 564 33,500  Descending FlightAware UK
Tue 04:59:42 AM 49.1600 -8.5050 104° East 536 617 35,100  Climbing FlightAware ADS-B
Tue 05:00:00 AM 49.1571 -8.4838 104° East 492 566 33,500 -2,667 Descending FlightAware UK
Tue 05:00:18 AM 49.1456 -8.4178 105° East 492 566 33,500 4,364 Level FlightAware UK
Tue 05:00:22 AM 49.1340 -8.3540 105° East 537 618 35,100  Climbing FlightAware ADS-B
Tue 05:00:42 AM 49.1304 -8.3298 105° East 492 566 33,500 -2,526 Descending FlightAware UK
Tue 05:01:00 AM 49.1190 -8.2638 105° East 490 564 33,500 3,840 Level FlightAware UK
Tue 05:01:07 AM 49.1070 -8.1930 105° East 536 617 35,100  Climbing FlightAware ADS-B
Tue 05:01:24 AM 49.1038 -8.1759 105° East 490 564 33,500 -2,743 Descending FlightAware UK
Tue 05:01:42 AM 49.0874 -8.1126 112° Southeast 490 564 33,500 4,174 Level FlightAware UK
Tue 05:01:47 AM 49.0750 -8.0490 112° Southeast 531 611 35,100  Climbing FlightAware ADS-B
Tue 05:02:06 AM 49.0643 -8.0299 112° Southeast 490 564 33,500 -2,595 Descending FlightAware UK
Tue 05:02:24 AM 49.0461 -7.9678 114° Southeast 490 564 33,500 4,571 Level FlightAware UK
Tue 05:02:27 AM 49.0360 -7.9140 114° Southeast 530 610 35,100  Climbing FlightAware ADS-B
Tue 05:02:42 AM 49.0273 -7.9070 114° Southeast 488 562 33,500 -2,909 Descending FlightAware UK
Tue 05:03:00 AM 49.0080 -7.8465 116° Southeast 490 564 33,500 3,200 Level FlightAware UK
Tue 05:03:12 AM 48.9890 -7.7670 116° Southeast 530 610 35,100  Climbing FlightAware ADS-B
Tue 05:03:30 AM 48.9755 -7.7456 116° Southeast 490 564 33,500 -2,667 Descending FlightAware UK
Tue 05:03:48 AM 48.9562 -7.6849 116° Southeast 490 564 33,500 4,364 Level FlightAware UK
Tue 05:03:52 AM 48.9460 -7.6290 116° Southeast 532 612 35,100  Climbing FlightAware ADS-B
Tue 05:04:12 AM 48.9306 -7.6040 116° Southeast 490 564 33,500 -2,526 Descending FlightAware UK
Tue 05:04:30 AM 48.9114 -7.5432 116° Southeast 492 566 33,500 3,840 Level FlightAware UK
Tue 05:04:37 AM 48.8980 -7.4790 116° Southeast 532 612 35,100  Climbing FlightAware ADS-B
Tue 05:04:54 AM 48.8860 -7.4620 116° Southeast 490 564 33,500 -2,743 Descending FlightAware UK
Tue 05:05:12 AM 48.8668 -7.4012 116° Southeast 490 564 33,500 4,174 Level FlightAware UK
Tue 05:05:17 AM 48.8550 -7.3410 116° Southeast 532 612 35,100  Climbing FlightAware ADS-B
Tue 05:05:36 AM 48.8413 -7.3200 116° Southeast 490 564 33,500 -2,595 Descending FlightAware UK
Tue 05:05:54 AM 48.8222 -7.2590 115° Southeast 490 564 33,500 4,571 Level FlightAware UK
Tue 05:05:57 AM 48.8150 -7.2130 115° Southeast 533 613 35,100  Climbing FlightAware ADS-B
Tue 05:06:12 AM 48.8031 -7.1981 115° Southeast 490 564 33,500 -2,909 Descending FlightAware UK
Tue 05:06:30 AM 48.7839 -7.1374 116° Southeast 490 564 33,500 3,200 Level FlightAware UK
Tue 05:06:42 AM 48.7650 -7.0570 116° Southeast 533 613 35,100  Climbing FlightAware ADS-B
Tue 05:07:00 AM 48.7515 -7.0363 116° Southeast 490 564 33,500 -2,667 Descending FlightAware UK
Tue 05:07:18 AM 48.7320 -6.9757 116° Southeast 490 564 33,500 4,364 Level FlightAware UK
Tue 05:07:22 AM 48.7200 -6.9190 116° Southeast 533 613 35,100  Climbing FlightAware ADS-B
Tue 05:07:42 AM 48.7059 -6.8951 116° Southeast 490 564 33,500 -2,526 Descending FlightAware UK
Tue 05:08:00 AM 48.6861 -6.8339 116° Southeast 490 564 33,500 4,800 Level FlightAware UK
Tue 05:08:02 AM 48.6770 -6.7860 116° Southeast 533 613 35,100  Climbing FlightAware ADS-B
Tue 05:08:18 AM 48.6666 -6.7734 116° Southeast 490 564 33,500 -2,824 Descending FlightAware UK
Tue 05:08:36 AM 48.6470 -6.7129 116° Southeast 490 564 33,500 3,310 Level FlightAware UK
Tue 05:08:47 AM 48.6280 -6.6340 116° Southeast 535 616 35,100  Climbing FlightAware ADS-B
Tue 05:09:06 AM 48.6141 -6.6121 116° Southeast 488 562 33,500 -2,595 Descending FlightAware UK
Tue 05:09:24 AM 48.5942 -6.5517 116° Southeast 488 562 33,500 4,571 Level FlightAware UK
Tue 05:09:27 AM 48.5850 -6.5020 116° Southeast 534 615 35,100  Climbing FlightAware ADS-B
Tue 05:09:42 AM 48.5744 -6.4913 116° Southeast 488 562 33,500 -2,909 Descending FlightAware UK
Tue 05:10:00 AM 48.5544 -6.4309 116° Southeast 488 562 33,500 3,200 Level FlightAware UK
Tue 05:10:12 AM 48.5380 -6.3600 116° Southeast 537 618 35,100  Climbing FlightAware ADS-B
Tue 05:10:30 AM 48.5212 -6.3301 116° Southeast 488 562 33,500 -2,667 Descending FlightAware UK
Tue 05:10:48 AM 48.5013 -6.2696 116° Southeast 488 562 33,500 4,364 Level FlightAware UK
Tue 05:10:52 AM 48.4900 -6.2190 116° Southeast 537 618 35,100  Climbing FlightAware ADS-B
Tue 05:11:12 AM 48.4744 -6.1889 116° Southeast 488 562 33,500 -2,526 Descending FlightAware UK
Tue 05:11:30 AM 48.4542 -6.1284 117° Southeast 486 559 33,500 4,800 Level FlightAware UK
Tue 05:11:32 AM 48.4480 -6.0900 117° Southeast 539 620 35,100  Climbing FlightAware ADS-B
Tue 05:11:48 AM 48.4339 -6.0678 117° Southeast 486 559 33,500 -2,824 Descending FlightAware UK
Tue 05:12:06 AM 48.4137 -6.0072 117° Southeast 488 562 33,500 3,310 Level FlightAware UK
Tue 05:12:17 AM 48.3950 -5.9340 117° Southeast 541 623 35,100  Climbing FlightAware ADS-B
Tue 05:12:36 AM 48.3798 -5.9061 117° Southeast 488 562 33,500 -2,595 Descending FlightAware UK
Tue 05:12:54 AM 48.3594 -5.8453 117° Southeast 486 559 33,500 4,571 Level FlightAware UK
Tue 05:12:57 AM 48.3500 -5.7990 117° Southeast 543 625 35,100  Climbing FlightAware ADS-B
Tue 05:13:12 AM 48.3390 -5.7839 117° Southeast 488 562 33,500 -2,909 Descending FlightAware UK
Tue 05:13:30 AM 48.3185 -5.7233 117° Southeast 488 562 33,500 3,200 Level FlightAware UK
Tue 05:13:42 AM 48.3000 -5.6520 117° Southeast 544 626 35,100  Climbing FlightAware ADS-B
Tue 05:14:00 AM 48.2842 -5.6222 117° Southeast 490 564 33,500 -2,667 Descending FlightAware UK
Tue 05:14:18 AM 48.2634 -5.5613 117° Southeast 490 564 33,500 4,364 Level FlightAware UK
Tue 05:14:22 AM 48.2520 -5.5140 117° Southeast 546 628 35,100  Climbing FlightAware ADS-B
Tue 05:14:42 AM 48.2357 -5.4800 117° Southeast 492 566 33,500 -2,526 Descending FlightAware UK
Tue 05:15:00 AM 48.2149 -5.4191 117° Southeast 490 564 33,500 3,840 Level FlightAware UK
Tue 05:15:07 AM 48.1990 -5.3600 117° Southeast 546 628 35,100 2,043 Climbing FlightAware ADS-B
Tue 05:15:47 AM 48.1530 -5.2260 117° Southeast 547 629 35,100  Level FlightAware ADS-B
Tue 05:16:27 AM 48.1070 -5.0930 117° Southeast 548 631 35,100  Level FlightAware ADS-B
Tue 05:17:12 AM 48.0540 -4.9430 118° Southeast 549 632 35,100  Level FlightAware ADS-B
Tue 05:17:52 AM 48.0070 -4.8090 118° Southeast 550 633 35,100  Level FlightAware ADS-B
Tue 05:18:37 AM 47.9530 -4.6560 118° Southeast 550 633 35,100  Level FlightAware ADS-B
Tue 05:19:17 AM 47.9050 -4.5200 118° Southeast 551 634 35,100  Level FlightAware ADS-B
Tue 05:19:57 AM 47.8560 -4.3850 118° Southeast 552 635 35,100  Level FlightAware ADS-B
Tue 05:20:42 AM 47.8040 -4.2390 118° Southeast 553 636 35,100  Level FlightAware ADS-B
Tue 05:21:22 AM 47.7550 -4.1050 119° Southeast 553 636 35,100  Level FlightAware ADS-B
Tue 05:22:07 AM 47.6990 -3.9510 118° Southeast 553 636 35,100  Level FlightAware ADS-B
Tue 05:22:47 AM 47.6510 -3.8190 118° Southeast 552 635 35,100  Level FlightAware ADS-B
Tue 05:23:27 AM 47.6020 -3.6840 118° Southeast 553 636 35,100  Level FlightAware ADS-B
Tue 05:24:12 AM 47.5490 -3.5410 119° Southeast 553 636 35,100  Level FlightAware ADS-B
Tue 05:24:52 AM 47.4990 -3.4060 119° Southeast 553 636 35,100  Level FlightAware ADS-B
Tue 05:25:37 AM 47.4420 -3.2550 119° Southeast 554 638 35,100  Level FlightAware ADS-B
Tue 05:26:17 AM 47.3930 -3.1240 119° Southeast 554 638 35,100  Level FlightAware ADS-B
Tue 05:26:57 AM 47.3430 -2.9900 119° Southeast 553 636 35,100  Level FlightAware ADS-B
Tue 05:27:42 AM 47.2870 -2.8450 120° Southeast 554 638 35,100  Level FlightAware ADS-B
Tue 05:28:22 AM 47.2390 -2.7170 119° Southeast 554 638 35,100  Level FlightAware ADS-B
Tue 05:29:07 AM 47.1800 -2.5630 119° Southeast 556 640 35,100  Level FlightAware ADS-B
Tue 05:29:47 AM 47.1290 -2.4310 120° Southeast 557 641 35,100  Level FlightAware ADS-B
Tue 05:30:27 AM 47.0780 -2.3000 120° Southeast 556 640 35,100  Level FlightAware ADS-B
Tue 05:31:12 AM 47.0210 -2.1540 120° Southeast 558 642 35,100  Level FlightAware ADS-B
Tue 05:31:47 AM 46.9770 -2.0410 120° Southeast 558 642 35,100  Level FlightAware ADS-B
Tue 05:32:37 AM 46.9120 -1.8760 120° Southeast 560 644 35,100  Level FlightAware ADS-B
Tue 05:33:17 AM 46.8600 -1.7430 120° Southeast 562 647 35,100  Level FlightAware ADS-B
Tue 05:34:02 AM 46.8030 -1.5980 120° Southeast 563 648 35,100  Level FlightAware ADS-B
Tue 05:34:42 AM 46.7500 -1.4660 120° Southeast 564 649 35,100  Level FlightAware ADS-B
Tue 05:35:22 AM 46.6970 -1.3350 121° Southeast 565 650 35,100  Level FlightAware ADS-B
Tue 05:35:52 AM 46.6570 -1.2360 120° Southeast 565 650 35,100  Level FlightAware ADS-B
Tue 05:36:32 AM 46.6060 -1.1100 120° Southeast 565 650 35,100  Level FlightAware ADS-B
Tue 05:37:17 AM 46.5450 -0.9570 120° Southeast 565 650 35,100  Level FlightAware ADS-B
Tue 05:37:52 AM 46.5010 -0.8510 121° Southeast 565 650 35,100  Level FlightAware ADS-B
Tue 05:38:22 AM 46.4640 -0.7590 120° Southeast 35,100  Level FlightAware ADS-B
Tue 05:39:02 AM 46.4100 -0.6250 120° Southeast 565 650 35,100  Level FlightAware ADS-B
Tue 05:39:37 AM 46.3700 -0.5140 118° Southeast 565 650 35,100  Level FlightAware ADS-B
Tue 05:40:22 AM 46.3180 -0.3630 116° Southeast 566 651 35,100  Level FlightAware ADS-B
Tue 05:41:07 AM 46.2720 -0.1980 112° Southeast 562 647 35,100  Level FlightAware ADS-B
Tue 05:41:47 AM 46.2260 -0.0700 117° Southeast 562 647 35,100  Level FlightAware ADS-B
Tue 05:42:32 AM 46.1790 0.0890 113° Southeast 562 647 35,100  Level FlightAware ADS-B
Tue 05:43:12 AM 46.1390 0.2310 112° Southeast 562 647 35,100  Level FlightAware ADS-B
Tue 05:43:52 AM 46.1000 0.3620 113° Southeast 562 647 35,100  Level FlightAware ADS-B
Tue 05:44:37 AM 46.0630 0.5250 108° East 563 648 35,100  Level FlightAware ADS-B
Tue 05:45:17 AM 46.0360 0.6670 105° East 563 648 35,100  Level FlightAware ADS-B
Tue 05:46:02 AM 46.0080 0.8180 105° East 563 648 35,100  Level FlightAware ADS-B
Tue 05:46:42 AM 45.9850 0.9410 105° East 563 648 35,100  Level FlightAware ADS-B
Tue 05:47:22 AM 45.9620 1.0640 105° East 563 648 35,100  Level FlightAware ADS-B
Tue 05:48:02 AM 45.9390 1.1870 105° East 563 648 35,100  Level FlightAware ADS-B
Tue 05:48:47 AM 45.8600 1.4220 116° Southeast 564 649 35,100  Level FlightAware ADS-B
Tue 05:49:57 AM 45.7950 1.6800 110° East 562 647 35,100  Level FlightAware ADS-B
Tue 05:50:42 AM 45.7530 1.8350 111° Southeast 564 649 35,100  Level FlightAware ADS-B
Tue 05:51:22 AM 45.7010 1.9650 120° Southeast 565 650 35,100  Level FlightAware ADS-B
Tue 05:52:07 AM 45.6430 2.1090 120° Southeast 566 651 35,100  Level FlightAware ADS-B
Tue 05:52:47 AM 45.5890 2.2430 120° Southeast 566 651 35,100  Level FlightAware ADS-B
Tue 05:53:32 AM 45.5310 2.3860 120° Southeast 567 652 35,100  Level FlightAware ADS-B
Tue 05:54:12 AM 45.4790 2.5140 120° Southeast 566 651 35,100  Level FlightAware ADS-B
Tue 05:54:52 AM 45.4270 2.6430 120° Southeast 565 650 35,100  Level FlightAware ADS-B
Tue 05:55:37 AM 45.3680 2.7850 121° Southeast 566 651 35,100  Level FlightAware ADS-B
Tue 05:56:07 AM 45.3310 2.8740 121° Southeast 565 650 35,100  Level FlightAware ADS-B
Tue 05:56:57 AM 45.2650 3.0400 119° Southeast 565 650 35,100  Level FlightAware ADS-B
Tue 05:57:42 AM 45.2150 3.1980 114° Southeast 564 649 35,100  Level FlightAware ADS-B
Tue 05:58:27 AM 45.1710 3.3480 113° Southeast 564 649 35,100  Level FlightAware ADS-B
Tue 05:59:07 AM 45.1320 3.4890 111° Southeast 564 649 35,100  Level FlightAware ADS-B
Tue 05:59:47 AM 45.0930 3.6260 112° Southeast 565 650 35,100  Level FlightAware ADS-B
Tue 06:00:32 AM 45.0510 3.7730 112° Southeast 566 651 35,100  Level FlightAware ADS-B
Tue 06:01:12 AM 45.0100 3.9160 112° Southeast 565 650 35,100  Level FlightAware ADS-B
Tue 06:01:52 AM 44.9720 4.0520 112° Southeast 566 651 35,100  Level FlightAware ADS-B
Tue 06:02:37 AM 44.9270 4.2110 112° Southeast 566 651 35,100  Level FlightAware ADS-B
Tue 06:03:17 AM 44.8880 4.3460 112° Southeast 565 650 35,100  Level FlightAware ADS-B
Tue 06:04:02 AM 44.8450 4.4960 112° Southeast 564 649 35,100  Level FlightAware ADS-B
Tue 06:04:42 AM 44.8050 4.6310 113° Southeast 562 647 35,100  Level FlightAware ADS-B
Tue 06:05:22 AM 44.7650 4.7670 112° Southeast 562 647 35,100  Level FlightAware ADS-B
Tue 06:06:07 AM 44.7190 4.9230 112° Southeast 562 647 35,100  Level FlightAware ADS-B
Tue 06:06:47 AM 44.6780 5.0590 113° Southeast 562 647 35,100  Level FlightAware ADS-B
Tue 06:07:32 AM 44.6340 5.2010 113° Southeast 564 649 35,100  Level FlightAware ADS-B
Tue 06:08:12 AM 44.5750 5.3270 123° Southeast 566 651 35,100  Level FlightAware ADS-B
Tue 06:08:52 AM 44.5070 5.4370 131° Southeast 565 650 35,100  Level FlightAware ADS-B
Tue 06:09:37 AM 44.4280 5.5630 131° Southeast 563 648 35,100  Level FlightAware ADS-B
Tue 06:10:17 AM 44.3600 5.6750 130° Southeast 564 649 35,100  Level FlightAware ADS-B
Tue 06:10:57 AM 44.3000 5.7940 125° Southeast 563 648 35,100  Level FlightAware ADS-B
Tue 06:11:42 AM 44.2330 5.9310 124° Southeast 561 646 35,100  Level FlightAware ADS-B
Tue 06:12:22 AM 44.1780 6.0440 124° Southeast 561 646 35,100  Level FlightAware ADS-B
Tue 06:13:07 AM 44.1110 6.1810 124° Southeast 559 643 35,100  Level FlightAware ADS-B
Tue 06:13:47 AM 44.0520 6.3010 124° Southeast 559 643 35,100  Level FlightAware ADS-B
Tue 06:14:27 AM 43.9940 6.4180 125° Southeast 558 642 35,100  Level FlightAware ADS-B
Tue 06:15:12 AM 43.9320 6.5430 125° Southeast 560 644 35,100  Level FlightAware ADS-B
Tue 06:15:57 AM 43.8610 6.6870 124° Southeast 559 643 35,100  Level FlightAware ADS-B
Tue 06:16:37 AM 43.8020 6.8030 125° Southeast 558 642 35,100  Level FlightAware ADS-B
Tue 06:17:17 AM 43.7510 6.9180 122° Southeast 558 642 35,100  Level FlightAware ADS-B
Tue 06:18:02 AM 43.6940 7.0490 121° Southeast 557 641 35,100  Level FlightAware ADS-B
Tue 06:18:42 AM 43.6380 7.1780 121° Southeast 557 641 35,100  Level FlightAware ADS-B
Tue 06:19:22 AM 43.5890 7.2910 121° Southeast 556 640 35,100  Level FlightAware ADS-B
Tue 06:20:07 AM 43.5230 7.4370 122° Southeast 557 641 35,100  Level FlightAware ADS-B
Tue 06:20:47 AM 43.4690 7.5560 122° Southeast 557 641 35,100  Level FlightAware ADS-B
Tue 06:21:32 AM 43.4050 7.6980 122° Southeast 558 642 35,100 494 Level FlightAware ADS-B
Tue 06:22:12 AM 43.3500 7.8180 122° Southeast 561 646 35,800 1,059 Climbing FlightAware ADS-B
Tue 06:22:57 AM 43.2910 7.9480 122° Southeast 559 643 36,600 918 Climbing FlightAware ADS-B
Tue 06:23:37 AM 43.2360 8.0690 122° Southeast 562 647 37,100 375 Climbing FlightAware ADS-B
Tue 06:24:17 AM 43.1790 8.1920 122° Southeast 561 646 37,100  Level FlightAware ADS-B
Tue 06:25:02 AM 43.1150 8.3310 122° Southeast 559 643 37,100  Level FlightAware ADS-B
Tue 06:25:42 AM 43.0600 8.4490 123° Southeast 558 642 37,100  Level FlightAware ADS-B
Tue 06:26:17 AM 43.0130 8.5490 123° Southeast 557 641 37,100  Level FlightAware ADS-B
Tue 06:27:07 AM 42.9440 8.6970 122° Southeast 553 636 37,100  Level FlightAware ADS-B
Tue 06:27:52 AM 42.8820 8.8290 123° Southeast 553 636 37,100  Level FlightAware ADS-B
Tue 06:28:27 AM 42.8360 8.9280 122° Southeast 553 636 37,100  Level FlightAware ADS-B
Tue 06:29:12 AM 42.7730 9.0590 123° Southeast 553 636 37,100  Level FlightAware ADS-B
Tue 06:29:57 AM 42.7110 9.1910 123° Southeast 552 635 37,100  Level FlightAware ADS-B
Tue 06:30:37 AM 42.6550 9.3070 123° Southeast 553 636 37,100  Level FlightAware ADS-B
Tue 06:31:17 AM 42.6030 9.4310 120° Southeast 553 636 37,100  Level FlightAware ADS-B
Tue 06:32:02 AM 42.5580 9.5770 113° Southeast 549 632 37,100  Level FlightAware ADS-B
Tue 06:32:42 AM 42.5220 9.7090 110° East 546 628 37,100  Level FlightAware ADS-B
Tue 06:33:27 AM 42.4820 9.8530 111° Southeast 542 624 37,100  Level FlightAware ADS-B
Tue 06:34:07 AM 42.4470 9.9780 111° Southeast 541 623 37,100  Level FlightAware ADS-B
Tue 06:34:52 AM 42.4100 10.1090 111° Southeast 539 620 37,100  Level FlightAware ADS-B
Tue 06:35:32 AM 42.3710 10.2470 111° Southeast 536 617 37,100  Level FlightAware ADS-B
Tue 06:36:27 AM 42.3220 10.4210 111° Southeast 534 615 37,100  Level FlightAware ADS-B
Tue 06:37:02 AM 42.2920 10.5270 111° Southeast 531 611 37,100  Level FlightAware ADS-B
Tue 06:37:47 AM 42.2510 10.6680 111° Southeast 523 602 37,100  Level FlightAware ADS-B
Tue 06:38:42 AM 42.2030 10.8340 111° Southeast 519 597 37,100  Level FlightAware ADS-B
Tue 06:39:27 AM 42.1640 10.9670 112° Southeast 519 597 37,100  Level FlightAware ADS-B
Tue 06:40:22 AM 42.0950 11.1240 121° Southeast 529 609 37,100  Level FlightAware ADS-B
Tue 06:40:57 AM 42.0400 11.2130 130° Southeast 528 608 37,100  Level FlightAware ADS-B
Tue 06:41:52 AM 41.9530 11.3510 130° Southeast 525 604 37,100  Level FlightAware ADS-B
Tue 06:42:32 AM 41.8950 11.4420 131° Southeast 522 601 37,100  Level FlightAware ADS-B
Tue 06:43:42 AM 41.7880 11.6100 130° Southeast 520 598 37,100  Level FlightAware ADS-B
Tue 06:44:17 AM 41.7330 11.6980 130° Southeast 519 597 37,100  Level FlightAware ADS-B
Tue 06:45:07 AM 41.6550 11.8190 131° Southeast 520 598 37,100  Level FlightAware ADS-B
Tue 06:45:57 AM 41.5760 11.9420 131° Southeast 520 598 37,100  Level FlightAware ADS-B
Tue 06:46:57 AM 41.4760 12.0970 131° Southeast 520 598 37,100  Level FlightAware ADS-B
Tue 06:47:52 AM 41.3890 12.2300 131° Southeast 519 597 37,100  Level FlightAware ADS-B
Tue 06:48:42 AM 41.3230 12.3320 131° Southeast 518 596 37,100  Level FlightAware ADS-B
Tue 06:49:37 AM 41.2410 12.4580 131° Southeast 515 593 37,100  Level FlightAware ADS-B
Tue 06:50:17 AM 41.1830 12.5460 131° Southeast 513 590 37,100  Level FlightAware ADS-B
Tue 06:51:17 AM 41.0880 12.6910 131° Southeast 513 590 37,100  Level FlightAware ADS-B
Tue 06:52:02 AM 41.0130 12.8030 132° Southeast 514 592 37,100  Level FlightAware ADS-B
Tue 06:53:02 AM 40.9270 12.9340 131° Southeast 514 592 37,100  Level FlightAware ADS-B
Tue 06:53:57 AM 40.8370 13.1100 124° Southeast 516 594 37,100  Level FlightAware ADS-B
Tue 06:54:32 AM 40.7990 13.1990 119° Southeast 516 594 37,100  Level FlightAware ADS-B
Tue 06:55:22 AM 40.7340 13.3460 120° Southeast 516 594 37,100  Level FlightAware ADS-B
Tue 06:56:02 AM 40.6850 13.4570 120° Southeast 516 594 37,100  Level FlightAware ADS-B
Tue 06:56:47 AM 40.6320 13.5770 120° Southeast 516 594 37,100  Level FlightAware ADS-B
Tue 06:57:27 AM 40.5830 13.6870 120° Southeast 517 595 37,100  Level FlightAware ADS-B
Tue 06:58:07 AM 40.5360 13.7930 120° Southeast 517 595 37,100  Level FlightAware ADS-B
Tue 06:58:52 AM 40.4790 13.9190 121° Southeast 517 595 37,100  Level FlightAware ADS-B
Tue 06:59:32 AM 40.4310 14.0260 120° Southeast 518 596 37,100  Level FlightAware ADS-B
Tue 07:00:12 AM 40.3820 14.1350 121° Southeast 518 596 37,100  Level FlightAware ADS-B
Tue 07:00:57 AM 40.3270 14.2550 121° Southeast 517 595 37,100  Level FlightAware ADS-B
Tue 07:01:37 AM 40.2780 14.3620 121° Southeast 518 596 37,100  Level FlightAware ADS-B
Tue 07:02:17 AM 40.2290 14.4690 121° Southeast 518 596 37,100  Level FlightAware ADS-B
Tue 07:03:02 AM 40.1740 14.5890 121° Southeast 518 596 37,100  Level FlightAware ADS-B
Tue 07:03:42 AM 40.1230 14.7000 121° Southeast 517 595 37,100  Level FlightAware ADS-B
Tue 07:04:27 AM 40.0690 14.8180 121° Southeast 515 593 37,100  Level FlightAware ADS-B
Tue 07:05:07 AM 40.0200 14.9240 121° Southeast 514 592 37,100  Level FlightAware ADS-B
Tue 07:05:52 AM 39.9630 15.0460 121° Southeast 514 592 37,100  Level FlightAware ADS-B
Tue 07:06:32 AM 39.9140 15.1520 121° Southeast 513 590 37,100  Level FlightAware ADS-B
Tue 07:07:12 AM 39.8650 15.2560 122° Southeast 513 590 37,100  Level FlightAware ADS-B
Tue 07:07:57 AM 39.8100 15.3720 122° Southeast 512 589 37,100  Level FlightAware ADS-B
Tue 07:08:37 AM 39.7620 15.4760 121° Southeast 511 588 37,100  Level FlightAware ADS-B
Tue 07:09:17 AM 39.7190 15.5880 116° Southeast 512 589 37,100  Level FlightAware ADS-B
Tue 07:09:57 AM 39.6800 15.6990 115° Southeast 509 586 37,100  Level FlightAware ADS-B
Tue 07:10:42 AM 39.6370 15.8250 114° Southeast 510 587 37,100  Level FlightAware ADS-B
Tue 07:11:27 AM 39.5950 15.9490 114° Southeast 507 583 37,100  Level FlightAware ADS-B
Tue 07:12:07 AM 39.5560 16.0620 114° Southeast 506 582 37,100  Level FlightAware ADS-B
Tue 07:12:47 AM 39.5180 16.1730 114° Southeast 505 581 37,100  Level FlightAware ADS-B
Tue 07:13:32 AM 39.4750 16.3000 114° Southeast 505 581 37,100  Level FlightAware ADS-B
Tue 07:14:12 AM 39.4370 16.4100 114° Southeast 508 585 37,100  Level FlightAware ADS-B
Tue 07:14:57 AM 39.3950 16.5310 114° Southeast 508 585 37,100  Level FlightAware ADS-B
Tue 07:15:37 AM 39.3570 16.6410 114° Southeast 509 586 37,100  Level FlightAware ADS-B
Tue 07:16:22 AM 39.3110 16.7710 115° Southeast 511 588 37,100  Level FlightAware ADS-B
Tue 07:17:02 AM 39.2730 16.8820 114° Southeast 512 589 37,100  Level FlightAware ADS-B
Tue 07:17:47 AM 39.2300 17.0030 115° Southeast 513 590 37,100  Level FlightAware ADS-B
Tue 07:18:27 AM 39.1930 17.1100 114° Southeast 512 589 37,100  Level FlightAware ADS-B
Tue 07:19:07 AM 39.1590 17.2060 115° Southeast 512 589 37,100  Level FlightAware ADS-B
Tue 07:19:47 AM 39.1180 17.3210 115° Southeast 512 589 37,100  Level FlightAware ADS-B
Tue 07:20:37 AM 39.0710 17.4510 115° Southeast 512 589 37,100  Level FlightAware ADS-B
Tue 07:21:07 AM 39.0390 17.5420 114° Southeast 512 589 37,100  Level FlightAware ADS-B
Tue 07:21:52 AM 38.9950 17.6670 114° Southeast 512 589 37,100  Level FlightAware ADS-B
Tue 07:22:42 AM 38.9470 17.7980 115° Southeast 510 587 37,100  Level FlightAware ADS-B
Tue 07:23:17 AM 38.9170 17.8830 114° Southeast 507 583 37,100  Level FlightAware ADS-B
Tue 07:24:02 AM 38.8680 18.0180 115° Southeast 506 582 37,100  Level FlightAware ADS-B
Tue 07:24:42 AM 38.8290 18.1250 115° Southeast 505 581 37,100  Level FlightAware ADS-B
Tue 07:25:27 AM 38.7830 18.2510 115° Southeast 504 580 37,100  Level FlightAware ADS-B
Tue 07:26:07 AM 38.7410 18.3640 115° Southeast 503 579 37,100  Level FlightAware ADS-B
Tue 07:26:42 AM 38.7130 18.4410 115° Southeast 503 579 37,100  Level FlightAware ADS-B
Tue 07:27:47 AM 38.6480 18.6170 115° Southeast 506 582 37,100  Level FlightAware ADS-B
Tue 07:28:32 AM 38.6000 18.7470 115° Southeast 505 581 37,100  Level FlightAware ADS-B
Tue 07:29:07 AM 38.5660 18.8370 116° Southeast 503 579 37,100  Level FlightAware ADS-B
Tue 07:29:47 AM 38.5260 18.9480 115° Southeast 504 580 37,100  Level FlightAware ADS-B
Tue 07:30:37 AM 38.4790 19.0930 112° Southeast 504 580 37,100  Level FlightAware ADS-B
Tue 07:31:17 AM 38.4490 19.1870 112° Southeast 504 580 37,100  Level FlightAware ADS-B
Tue 07:31:52 AM 38.4220 19.2950 108° East 502 578 37,100  Level FlightAware ADS-B
Tue 07:32:42 AM 38.3800 19.4350 111° Southeast 504 580 37,100  Level FlightAware ADS-B
Tue 07:33:22 AM 38.3480 19.5420 111° Southeast 505 581 37,100  Level FlightAware ADS-B
Tue 07:34:02 AM 38.3140 19.6520 111° Southeast 505 581 37,100  Level FlightAware ADS-B
Tue 07:34:47 AM 38.2740 19.7840 111° Southeast 506 582 37,100  Level FlightAware ADS-B
Tue 07:35:27 AM 38.2410 19.8910 111° Southeast 508 585 37,100  Level FlightAware ADS-B
Tue 07:36:07 AM 38.2060 20.0080 111° Southeast 508 585 37,100  Level FlightAware ADS-B
Tue 07:37:02 AM 38.1610 20.1520 112° Southeast 509 586 37,100  Level FlightAware ADS-B
Tue 07:37:47 AM 38.1260 20.2680 111° Southeast 509 586 37,100  Level FlightAware ADS-B
Tue 07:38:27 AM 38.0980 20.3630 111° Southeast 509 586 37,100  Level FlightAware ADS-B
Tue 07:39:07 AM 38.0690 20.4580 111° Southeast 509 586 37,100  Level FlightAware ADS-B
Tue 07:39:47 AM 38.0400 20.5530 111° Southeast 509 586 37,100  Level FlightAware ADS-B
Tue 07:40:37 AM 38.0040 20.6720 111° Southeast 509 586 37,100  Level FlightAware ADS-B
Tue 07:41:17 AM 37.9760 20.7670 110° East 509 586 37,100  Level FlightAware ADS-B
Tue 07:41:57 AM 37.9470 20.8620 111° Southeast 509 586 37,100  Level FlightAware ADS-B
Tue 07:43:22 AM 37.8250 21.2270 113° Southeast 510 587 37,100  Level FlightAware ADS-B
Tue 07:44:12 AM 37.7830 21.3570 112° Southeast 510 587 37,100  Level FlightAware ADS-B
Tue 07:44:57 AM 37.7420 21.4860 112° Southeast 510 587 37,100  Level FlightAware ADS-B
Tue 07:45:42 AM 37.7050 21.6010 112° Southeast 510 587 37,100  Level FlightAware ADS-B
Tue 07:46:37 AM 37.6510 21.7660 112° Southeast 510 587 37,100  Level FlightAware ADS-B
Tue 07:47:22 AM 37.6140 21.8800 112° Southeast 510 587 37,100  Level FlightAware ADS-B
Tue 07:47:57 AM 37.5840 21.9720 112° Southeast 510 587 37,100  Level FlightAware ADS-B
Tue 07:48:42 AM 37.5390 22.1090 112° Southeast 507 583 37,100  Level FlightAware ADS-B
Tue 07:49:32 AM 37.4940 22.2440 113° Southeast 507 583 37,100  Level FlightAware ADS-B
Tue 07:50:12 AM 37.4590 22.3500 113° Southeast 505 581 37,100  Level FlightAware ADS-B
Tue 07:50:52 AM 37.4240 22.4550 113° Southeast 503 579 37,100  Level FlightAware ADS-B
Tue 07:51:32 AM 37.3880 22.5630 113° Southeast 502 578 37,100  Level FlightAware ADS-B
Tue 07:52:17 AM 37.3480 22.6820 113° Southeast 502 578 37,100  Level FlightAware ADS-B
Tue 07:53:02 AM 37.3050 22.8110 113° Southeast 505 581 37,100  Level FlightAware ADS-B
Tue 07:53:42 AM 37.2690 22.9170 113° Southeast 507 583 37,100  Level FlightAware ADS-B
Tue 07:54:17 AM 37.2390 23.0040 113° Southeast 506 582 37,100  Level FlightAware ADS-B
Tue 07:55:07 AM 37.1930 23.1390 113° Southeast 506 582 37,100  Level FlightAware ADS-B
Tue 07:55:42 AM 37.1570 23.2440 113° Southeast 506 582 37,100  Level FlightAware ADS-B
Tue 07:56:42 AM 37.1040 23.3980 113° Southeast 507 583 37,100  Level FlightAware ADS-B
Tue 07:57:27 AM 37.0630 23.5190 113° Southeast 507 583 37,100  Level FlightAware ADS-B
Tue 07:58:02 AM 37.0300 23.6120 114° Southeast 513 590 37,100  Level FlightAware ADS-B
Tue 07:58:52 AM 36.9830 23.7480 113° Southeast 515 593 37,100  Level FlightAware ADS-B
Tue 07:59:32 AM 36.9420 23.8640 114° Southeast 516 594 37,100  Level FlightAware ADS-B
Tue 08:00:12 AM 36.9040 23.9730 114° Southeast 519 597 37,100 353 Level FlightAware ADS-B
Tue 08:00:57 AM 36.8610 24.0970 113° Southeast 523 602 37,600 918 Climbing FlightAware ADS-B
Tue 08:01:37 AM 36.8200 24.2110 114° Southeast 521 600 38,400 918 Climbing FlightAware ADS-B
Tue 08:02:22 AM 36.7760 24.3360 114° Southeast 523 602 38,900 494 Climbing FlightAware ADS-B
Tue 08:03:02 AM 36.7380 24.4420 114° Southeast 526 605 39,100 150 Climbing FlightAware ADS-B
Tue 08:03:42 AM 36.6970 24.5580 114° Southeast 526 605 39,100  Level FlightAware ADS-B
Tue 08:04:17 AM 36.6620 24.6550 114° Southeast 525 604 39,100  Level FlightAware ADS-B
Tue 08:05:07 AM 36.6130 24.7900 114° Southeast 521 600 39,100  Level FlightAware ADS-B
Tue 08:05:42 AM 36.5780 24.8880 114° Southeast 521 600 39,100  Level FlightAware ADS-B
Tue 08:06:32 AM 36.5330 25.0130 114° Southeast 516 594 39,100  Level FlightAware ADS-B
Tue 08:07:17 AM 36.4920 25.1260 114° Southeast 516 594 39,100  Level FlightAware ADS-B
Tue 08:07:52 AM 36.4510 25.2360 115° Southeast 512 589 39,100  Level FlightAware ADS-B
Tue 08:08:37 AM 36.4130 25.3410 114° Southeast 512 589 39,100  Level FlightAware ADS-B
Tue 08:09:17 AM 36.3810 25.4320 114° Southeast 512 589 39,100  Level FlightAware ADS-B
Tue 08:09:57 AM 36.3480 25.5240 114° Southeast 512 589 39,100  Level FlightAware ADS-B
Tue 08:10:37 AM 36.3150 25.6150 114° Southeast 512 589 39,100  Level FlightAware ADS-B
Tue 08:11:17 AM 36.2530 25.7720 116° Southeast 39,100  Level FlightAware ADS-B
Tue 08:12:27 AM 36.1820 25.9640 115° Southeast 39,100  Level FlightAware ADS-B
Tue 08:13:32 AM 36.1170 26.1370 115° Southeast 509 586 39,100  Level FlightAware ADS-B
Tue 08:14:07 AM 36.0830 26.2270 115° Southeast 509 586 39,100  Level FlightAware ADS-B
Tue 08:15:02 AM 36.0280 26.3720 115° Southeast 510 587 39,100  Level FlightAware ADS-B
Tue 08:15:52 AM 35.9760 26.5090 115° Southeast 510 587 39,100  Level FlightAware ADS-B
Tue 08:16:32 AM 35.9390 26.6050 115° Southeast 510 587 39,100  Level FlightAware ADS-B
Tue 08:17:07 AM 35.9040 26.6970 115° Southeast 510 587 39,100  Level FlightAware ADS-B
Tue 08:17:57 AM 35.8490 26.8410 115° Southeast 508 585 39,100  Level FlightAware ADS-B
Tue 08:18:32 AM 35.8160 26.9280 115° Southeast 508 585 39,100  Level FlightAware ADS-B
Tue 08:19:12 AM 35.7770 27.0260 116° Southeast 507 583 39,100  Level FlightAware ADS-B
Tue 08:20:02 AM 35.7260 27.1580 115° Southeast 507 583 39,100  Level FlightAware ADS-B
Tue 08:20:37 AM 35.6930 27.2450 115° Southeast 507 583 39,100  Level FlightAware ADS-B
Tue 08:21:27 AM 35.6510 27.3560 115° Southeast 507 583 39,100  Level FlightAware ADS-B
Tue 08:22:02 AM 35.6040 27.4710 117° Southeast 515 593 39,100  Level FlightAware ADS-B
Tue 08:22:47 AM 35.5590 27.5840 116° Southeast 515 593 39,100  Level FlightAware ADS-B
Tue 08:23:32 AM 35.5090 27.7110 116° Southeast 519 597 39,100  Level FlightAware ADS-B
Tue 08:24:12 AM 35.4680 27.8140 116° Southeast 522 601 39,100  Level FlightAware ADS-B
Tue 08:24:57 AM 35.4210 27.9340 116° Southeast 525 604 39,100  Level FlightAware ADS-B
Tue 08:25:37 AM 35.3780 28.0410 116° Southeast 526 605 39,100  Level FlightAware ADS-B
Tue 08:26:22 AM 35.3250 28.1740 116° Southeast 526 605 39,100  Level FlightAware ADS-B
Tue 08:27:02 AM 35.2820 28.2810 116° Southeast 526 605 39,100  Level FlightAware ADS-B
Tue 08:27:42 AM 35.2390 28.3880 116° Southeast 527 606 39,100  Level FlightAware ADS-B
Tue 08:28:27 AM 35.1900 28.5080 117° Southeast 529 609 39,100  Level FlightAware ADS-B
Tue 08:29:12 AM 35.1410 28.6280 117° Southeast 532 612 39,100  Level FlightAware ADS-B
Tue 08:29:52 AM 35.1020 28.7240 116° Southeast 533 613 39,100  Level FlightAware ADS-B
Tue 08:30:47 AM 35.0360 28.8870 116° Southeast 533 613 39,100  Level FlightAware ADS-B
Tue 08:31:32 AM 34.9880 29.0030 117° Southeast 534 615 39,100  Level FlightAware ADS-B
Tue 08:32:12 AM 34.9430 29.1130 116° Southeast 536 617 39,100  Level FlightAware ADS-B
Tue 08:33:12 AM 34.8870 29.2500 116° Southeast 537 618 39,100  Level FlightAware ADS-B
Tue 08:33:52 AM 34.8320 29.3800 117° Southeast 536 617 39,100  Level FlightAware ADS-B
Tue 08:34:12 AM 34.8140 29.4230 117° Southeast 535 616 39,100  Level FlightAware ADS-B
Tue 08:35:02 AM 34.7540 29.5670 117° Southeast 535 616 39,100  Level FlightAware ADS-B
Tue 08:35:42 AM 34.7100 29.6740 117° Southeast 537 618 39,100  Level FlightAware ADS-B
Tue 08:36:22 AM 34.6650 29.7800 117° Southeast 537 618 39,100  Level FlightAware ADS-B
Tue 08:37:07 AM 34.6140 29.9020 117° Southeast 537 618 39,100  Level FlightAware ADS-B
Tue 08:37:47 AM 34.5680 30.0110 117° Southeast 538 619 39,100  Level FlightAware ADS-B
Tue 08:38:32 AM 34.5120 30.1310 119° Southeast 534 615 39,100  Level FlightAware ADS-B
Tue 08:39:12 AM 34.4650 30.2270 121° Southeast 541 623 39,100  Level FlightAware ADS-B
Tue 08:39:57 AM 34.4050 30.3500 121° Southeast 545 627 39,100  Level FlightAware ADS-B
Tue 08:40:37 AM 34.3540 30.4570 120° Southeast 548 631 39,100  Level FlightAware ADS-B
Tue 08:41:22 AM 34.2960 30.5790 120° Southeast 552 635 39,100  Level FlightAware ADS-B
Tue 08:42:02 AM 34.2440 30.6870 120° Southeast 553 636 39,100  Level FlightAware ADS-B
Tue 08:42:47 AM 34.1920 30.7970 120° Southeast 554 638 39,100  Level FlightAware ADS-B
Tue 08:43:27 AM 34.1340 30.9160 120° Southeast 552 635 39,100  Level FlightAware ADS-B
Tue 08:44:07 AM 34.0820 31.0240 120° Southeast 553 636 39,100  Level FlightAware ADS-B
Tue 08:44:42 AM 34.0410 31.1090 120° Southeast 554 638 39,100  Level FlightAware ADS-B
Tue 08:45:32 AM 33.9750 31.2420 121° Southeast 555 639 39,100  Level FlightAware ADS-B
Tue 08:46:17 AM 33.9150 31.3650 120° Southeast 557 641 39,100  Level FlightAware ADS-B
Tue 08:46:57 AM 33.8610 31.4750 121° Southeast 558 642 39,100  Level FlightAware ADS-B
Tue 08:47:37 AM 33.8090 31.5800 121° Southeast 557 641 39,100  Level FlightAware ADS-B
Tue 08:48:22 AM 33.7490 31.7030 120° Southeast 557 641 39,100  Level FlightAware ADS-B
Tue 08:49:02 AM 33.6970 31.8080 121° Southeast 561 646 39,100  Level FlightAware ADS-B
Tue 08:49:47 AM 33.6340 31.9340 121° Southeast 561 646 39,100  Level FlightAware ADS-B
Tue 08:50:27 AM 33.5810 32.0410 121° Southeast 561 646 39,100  Level FlightAware ADS-B
Tue 08:51:07 AM 33.5280 32.1470 121° Southeast 561 646 39,100  Level FlightAware ADS-B
Tue 08:51:52 AM 33.4670 32.2690 121° Southeast 562 647 39,100  Level FlightAware ADS-B
Tue 08:52:32 AM 33.4150 32.3730 121° Southeast 562 647 39,100 -282 Level FlightAware ADS-B
Tue 08:53:17 AM 33.3550 32.4920 121° Southeast 567 652 38,700 -1,412 Descending FlightAware ADS-B
Tue 08:53:57 AM 33.2990 32.6010 122° Southeast 558 642 37,100 -2,325 Descending FlightAware ADS-B
Tue 08:54:37 AM 33.2480 32.7020 121° Southeast 538 619 35,600 -2,188 Descending FlightAware ADS-B
Tue 08:55:22 AM 33.1890 32.8170 121° Southeast 531 611 34,000 -2,118 Descending FlightAware ADS-B
Tue 08:56:02 AM 33.1410 32.9130 121° Southeast 525 604 32,600 -2,175 Descending FlightAware ADS-B
Tue 08:56:42 AM 33.0890 33.0140 122° Southeast 511 588 31,100 -2,100 Descending FlightAware ADS-B
Tue 08:57:22 AM 33.0410 33.1070 122° Southeast 501 577 29,800 -2,025 Descending FlightAware ADS-B
Tue 08:58:02 AM 32.9950 33.1970 121° Southeast 491 565 28,400 -2,133 Descending FlightAware ADS-B
Tue 08:58:52 AM 32.9310 33.3200 122° Southeast 468 539 26,600 -2,200 Descending FlightAware ADS-B
Tue 08:59:32 AM 32.8870 33.4070 121° Southeast 454 522 25,100 -2,100 Descending FlightAware ADS-B
Tue 09:00:12 AM 32.8430 33.4900 122° Southeast 439 505 23,800 -2,047 Descending FlightAware ADS-B
Tue 09:00:57 AM 32.7970 33.5800 121° Southeast 426 490 22,200 -2,118 Descending FlightAware ADS-B
Tue 09:01:37 AM 32.7560 33.6580 122° Southeast 415 478 20,800 -2,188 Descending FlightAware ADS-B
Tue 09:02:22 AM 32.7100 33.7470 122° Southeast 406 467 19,100 -2,118 Descending FlightAware ADS-B
Tue 09:03:02 AM 32.6710 33.8220 122° Southeast 398 458 17,800 -2,025 Descending FlightAware ADS-B
Tue 09:03:42 AM 32.6320 33.8950 122° Southeast 387 445 16,400 -1,906 Descending FlightAware ADS-B
Tue 09:04:27 AM 32.5930 33.9710 121° Southeast 375 432 15,100 -1,765 Descending FlightAware ADS-B
Tue 09:05:07 AM 32.5550 34.0420 122° Southeast 363 418 13,900 -1,906 Descending FlightAware ADS-B
Tue 09:05:52 AM 32.5150 34.1180 122° Southeast 354 407 12,400 -1,835 Descending FlightAware ADS-B
Tue 09:06:32 AM 32.4800 34.1830 123° Southeast 345 397 11,300 -1,725 Descending FlightAware ADS-B
Tue 09:07:12 AM 32.4370 34.2400 132° Southeast 337 388 10,100 -1,754 Descending FlightAware ADS-B
Tue 09:07:37 AM 32.4120 34.2710 134° Southeast 333 383 9,400 -800 Descending FlightAware ADS-B
Tue 09:08:12 AM 32.3780 34.3110 135° Southeast 333 383 9,300 -109 Descending FlightAware ADS-B
Tue 09:08:32 AM 32.3590 34.3330 136° Southeast 333 383 9,300  Level FlightAware ADS-B
Tue 09:08:52 AM 32.3410 34.3550 134° Southeast 333 383 9,300  Level FlightAware ADS-B
Tue 09:09:22 AM 32.3130 34.3880 135° Southeast 333 383 9,300  Level FlightAware ADS-B
Tue 09:11:00 AM 32.1585 34.5865 126° Southeast  Level FlightAware Approximate
Tue 09:12:00 AM 32.0758 34.7188 115° Southeast  Level FlightAware Approximate
Tue 09:13:00 AM 32.0040 34.8601 125° Southeast  Level FlightAware Approximate
Tue 09:14:00 AM 32.0000 34.8667 125° Southeast  Level FlightAware Approximate
Tue 09:15:00 AM 32.0095 34.8769 125° Southeast  Level Estimated
Tue 09:16:00 AM 32.0095 34.8769 125° Southeast  Level Estimated
Tue 09:17:00 AM 32.0095 34.8769 125° Southeast  Level Estimated
Tue 09:18:00 AM 32.0095 34.8769 125° Southeast  Level Estimated
Tue 09:19:00 AM 32.0095 34.8769 125° Southeast  Level Estimated
Tue 09:20:00 AM 32.0095 34.8769 125° Southeast  Level Estimated
Tue 09:21:00 AM 32.0095 34.8769 125° Southeast  Level Estimated
Tue 09:22:00 AM 32.0095 34.8769 125° Southeast  Level Estimated

Login

Don't have an account? Register now (free) for customized features, flight alerts, and more!